Airport
Vladivostok International Airport (UHWW)

 UHWW / VVO
Khabarovsk CFPU
Khabarovsk (UHHH)
Khabarovsk (UHHH)
 43.39900, 132.14800  / 46 ft

 UHWW 122130Z 14003MPS 9999 OVC023 18/15 Q1013 R25L/0///70 NOSIG RMK QFE758
 TAF UHWW 122000Z 1221/1321 16003MPS 9999 BKN017 BECMG 1223/1224 21003MPS BKN025
UHWW_aip_1709, UHWW_j_0220
show charts
Scenery title Scenery type Flight Simulator 9 Flight Simulator X Prepar3D v2 Prepar3D v3 Prepar3D v4 Prepar3D v5 xPlane
UHWW THE EAST GATE P3D4 payware
UHWW THE EAST GATE P3D5 payware
UHWW, Vladivostok 1.0.0 X-Flight freeware
UHWW, Vladivostok 2017 v 1.2 freeware
uhww-scenery-fs9-1408 freeware
uhww-scenery-fsx-1304 freeware
Vladivostok UHWW (P3Dv4.4+) freeware

 

Vladivostok International Airport (Russian: Международный аэропорт "Владивосток" Mezhdunarodnyi aeroport Vladivostok) (IATA: VVO, ICAO: UHWW) is an international airport located near Artyom, Primorsky Krai, Russia, roughly an hour's drive (44 kilometers) north of the center of the city of Vladivostok. It was formerly known as Knevichi Airport, named after the village of Knevichi. The Knevichi airfield was designed for all types of aircraft and has two hard surface runways. Each runway is 3,500 metres (11,500 ft) in length and 60 metres (200 ft) in width.

Runways

07R/25L  Length: 11483ft  /  3500m, Surface: Concrete

07L/25R Length: 11483ft  /  3500m, Surface: Asphalt - closed 



2020 © VATRUS division (Privacy Policy)